Time;durP1;ratioP1;P1;durP2;ratioP2;P2;SDS_P1;SDS_P2;PMS_P1;PMS_P2;Temp;Humidity;BMP_temperature;BMP_pressure;BME280_temperature;BME280_humidity;BME280_pressure;Samples;Min_cycle;Max_cycle;Signal;HPM_P1;HPM_P2
2022/11/15 00:00:03;;;;;;;11.85;3.75;;;;;;;;;;5031606;28;20072;-41
2022/11/15 00:02:46;;;;;;;10.30;4.95;;;;;;;;;;5031729;28;20407;-40
2022/11/15 00:05:34;;;;;;;7.22;4.38;;;;;;;;;;5031494;28;20095;-41
2022/11/15 00:08:17;;;;;;;9.70;4.32;;;;;;;;;;5031574;28;20084;-41
2022/11/15 00:11:02;;;;;;;8.30;3.45;;;;;;;;;;5031412;28;20168;-41
2022/11/15 00:13:46;;;;;;;8.30;4.60;;;;;;;;;;5031410;28;20044;-40
2022/11/15 00:16:30;;;;;;;5.55;3.67;;;;;;;;;;5031657;28;20097;-40
2022/11/15 00:19:14;;;;;;;10.60;5.13;;;;;;;;;;5031737;28;20044;-41
2022/11/15 00:21:58;;;;;;;6.20;4.47;;;;;;;;;;5031244;28;20067;-40
2022/11/15 00:24:42;;;;;;;7.22;4.28;;;;;;;;;;5031844;28;20075;-40
2022/11/15 00:27:27;;;;;;;9.82;4.55;;;;;;;;;;5031598;28;20176;-40
2022/11/15 00:30:11;;;;;;;7.55;4.10;;;;;;;;;;5031995;28;20079;-40
2022/11/15 00:32:55;;;;;;;10.07;4.82;;;;;;;;;;5035616;28;20059;-40
2022/11/15 00:35:39;;;;;;;6.75;3.97;;;;;;;;;;5035612;28;20068;-43
2022/11/15 00:38:23;;;;;;;7.90;3.35;;;;;;;;;;5035296;28;20040;-41
2022/11/15 00:41:07;;;;;;;7.55;4.32;;;;;;;;;;5035508;28;20084;-40
2022/11/15 00:43:51;;;;;;;5.80;3.80;;;;;;;;;;5035442;28;20119;-40
2022/11/15 00:46:35;;;;;;;8.23;4.50;;;;;;;;;;5035514;28;20049;-40
2022/11/15 00:49:19;;;;;;;8.43;3.83;;;;;;;;;;5034950;28;20114;-40
2022/11/15 00:52:03;;;;;;;7.20;4.72;;;;;;;;;;5035024;28;20096;-41
2022/11/15 00:54:47;;;;;;;10.23;4.68;;;;;;;;;;5034985;28;20091;-41
2022/11/15 00:57:31;;;;;;;7.20;4.55;;;;;;;;;;5035312;28;20119;-40
2022/11/15 01:00:15;;;;;;;8.23;4.88;;;;;;;;;;5034993;28;20067;-41
2022/11/15 01:02:59;;;;;;;7.40;4.28;;;;;;;;;;5034863;28;20045;-41
2022/11/15 01:05:44;;;;;;;5.68;3.63;;;;;;;;;;5034664;28;20086;-40
2022/11/15 01:08:27;;;;;;;5.45;3.90;;;;;;;;;;5035075;28;20080;-40
2022/11/15 01:11:12;;;;;;;8.65;3.60;;;;;;;;;;5034730;28;20193;-40
2022/11/15 01:13:55;;;;;;;5.05;3.25;;;;;;;;;;5034823;28;20048;-41
2022/11/15 01:16:39;;;;;;;6.88;3.55;;;;;;;;;;5034508;28;20088;-41
2022/11/15 01:19:23;;;;;;;7.88;4.05;;;;;;;;;;5034651;28;20164;-41
2022/11/15 01:22:07;;;;;;;6.22;3.97;;;;;;;;;;5034596;28;20045;-40
2022/11/15 01:24:51;;;;;;;7.70;3.63;;;;;;;;;;5034671;28;20685;-40
2022/11/15 01:27:35;;;;;;;6.55;4.40;;;;;;;;;;5034411;28;20455;-40
2022/11/15 01:30:19;;;;;;;4.88;3.25;;;;;;;;;;5033715;28;20388;-40
2022/11/15 01:33:03;;;;;;;4.78;3.28;;;;;;;;;;5034254;28;20663;-41
2022/11/15 01:35:47;;;;;;;7.03;3.97;;;;;;;;;;5034235;28;20057;-40
2022/11/15 01:38:31;;;;;;;4.85;3.15;;;;;;;;;;5034297;28;20099;-40
2022/11/15 01:41:17;;;;;;;5.20;3.40;;;;;;;;;;5034301;28;20044;-41
2022/11/15 01:44:19;;;;;;;8.15;4.80;;;;;;;;;;5034427;28;20450;-40
2022/11/15 01:47:24;;;;;;;6.53;3.17;;;;;;;;;;5034127;28;20087;-41
2022/11/15 01:50:14;;;;;;;6.60;3.33;;;;;;;;;;5034027;28;20381;-40
2022/11/15 01:52:57;;;;;;;6.72;4.22;;;;;;;;;;5033937;28;20088;-40
2022/11/15 01:55:42;;;;;;;5.20;2.92;;;;;;;;;;5033757;28;20033;-40
2022/11/15 01:58:25;;;;;;;6.68;3.38;;;;;;;;;;5034096;28;20124;-41
2022/11/15 02:01:10;;;;;;;8.90;4.05;;;;;;;;;;5033867;28;20048;-40
2022/11/15 02:04:17;;;;;;;6.53;3.97;;;;;;;;;;5033690;28;20036;-40
2022/11/15 02:07:02;;;;;;;9.18;3.45;;;;;;;;;;5033395;28;20067;-41
2022/11/15 02:09:46;;;;;;;10.23;4.70;;;;;;;;;;5033737;28;20036;-41
2022/11/15 02:12:30;;;;;;;8.93;4.15;;;;;;;;;;5033549;28;20411;-40
2022/11/15 02:15:14;;;;;;;6.43;3.70;;;;;;;;;;5033933;28;20048;-41
2022/11/15 02:18:07;;;;;;;7.95;3.55;;;;;;;;;;5033573;28;20080;-40
2022/11/15 02:20:55;;;;;;;6.03;4.07;;;;;;;;;;5033393;28;20590;-41
2022/11/15 02:23:58;;;;;;;3.80;3.05;;;;;;;;;;5033667;28;20502;-41
2022/11/15 02:27:12;;;;;;;6.35;4.63;;;;;;;;;;5033263;28;20087;-41
2022/11/15 02:30:14;;;;;;;7.10;3.65;;;;;;;;;;5031620;28;20502;-40
2022/11/15 02:33:02;;;;;;;6.35;3.97;;;;;;;;;;5033356;28;20067;-40
2022/11/15 02:35:55;;;;;;;10.48;3.50;;;;;;;;;;5033071;28;20044;-41
2022/11/15 02:38:40;;;;;;;7.72;4.30;;;;;;;;;;5033381;28;20084;-40
2022/11/15 02:41:36;;;;;;;8.80;4.50;;;;;;;;;;5033344;28;20538;-41
2022/11/15 02:44:35;;;;;;;9.18;3.60;;;;;;;;;;5032951;28;20083;-40
2022/11/15 02:47:19;;;;;;;7.38;3.75;;;;;;;;;;5032735;28;20064;-41
2022/11/15 02:50:08;;;;;;;6.20;3.60;;;;;;;;;;5033139;28;20040;-40
2022/11/15 02:52:53;;;;;;;7.47;3.72;;;;;;;;;;5032188;28;20048;-41
2022/11/15 02:55:41;;;;;;;6.78;3.63;;;;;;;;;;5033048;28;20032;-40
2022/11/15 02:58:28;;;;;;;9.27;4.40;;;;;;;;;;5032986;28;20044;-40
2022/11/15 03:01:31;;;;;;;7.13;3.85;;;;;;;;;;5033004;28;20128;-41
2022/11/15 03:04:34;;;;;;;6.68;3.70;;;;;;;;;;5032736;28;20104;-41
2022/11/15 03:07:19;;;;;;;6.07;3.83;;;;;;;;;;5032577;28;20051;-40
2022/11/15 03:10:12;;;;;;;9.52;4.22;;;;;;;;;;5032517;28;20084;-40
2022/11/15 03:12:57;;;;;;;8.48;4.38;;;;;;;;;;5032328;28;20618;-40
2022/11/15 03:15:46;;;;;;;9.75;3.83;;;;;;;;;;5032523;28;20036;-40
2022/11/15 03:18:35;;;;;;;5.90;3.40;;;;;;;;;;5032420;28;20079;-40
2022/11/15 03:21:20;;;;;;;6.45;3.97;;;;;;;;;;5032310;28;20032;-41
2022/11/15 03:24:06;;;;;;;4.28;2.97;;;;;;;;;;5032207;28;20135;-40
2022/11/15 03:26:51;;;;;;;10.57;3.95;;;;;;;;;;5032085;28;20044;-40
2022/11/15 03:29:38;;;;;;;6.70;3.17;;;;;;;;;;5032460;28;20035;-41
2022/11/15 03:32:27;;;;;;;5.63;3.13;;;;;;;;;;5032166;28;20048;-40
2022/11/15 03:35:13;;;;;;;6.13;3.40;;;;;;;;;;5032195;28;20048;-40
2022/11/15 03:37:57;;;;;;;6.60;3.30;;;;;;;;;;5031909;28;20044;-40
2022/11/15 03:40:42;;;;;;;5.97;3.15;;;;;;;;;;5032007;28;20075;-42
2022/11/15 03:43:29;;;;;;;5.40;3.38;;;;;;;;;;5031920;28;20044;-40
2022/11/15 03:46:20;;;;;;;6.78;3.72;;;;;;;;;;5031817;28;20052;-41
2022/11/15 03:49:07;;;;;;;6.15;4.10;;;;;;;;;;5031720;28;20125;-40
2022/11/15 03:51:51;;;;;;;5.05;3.72;;;;;;;;;;5031796;28;20406;-40
2022/11/15 03:54:35;;;;;;;4.63;3.15;;;;;;;;;;5032066;28;20444;-40
2022/11/15 03:57:19;;;;;;;5.60;3.83;;;;;;;;;;5031868;28;20128;-40
2022/11/15 04:00:04;;;;;;;7.90;3.78;;;;;;;;;;5031648;28;20503;-41
2022/11/15 04:02:48;;;;;;;6.28;2.95;;;;;;;;;;5031521;28;20036;-41
2022/11/15 04:05:32;;;;;;;6.65;3.60;;;;;;;;;;5030954;28;20095;-40
2022/11/15 04:08:16;;;;;;;7.20;3.85;;;;;;;;;;5031607;28;20052;-41
2022/11/15 04:11:00;;;;;;;7.82;4.20;;;;;;;;;;5031596;28;20107;-41
2022/11/15 04:13:44;;;;;;;8.45;4.88;;;;;;;;;;5031427;28;20128;-41
2022/11/15 04:16:28;;;;;;;8.30;4.82;;;;;;;;;;5031485;28;20060;-40
2022/11/15 04:25:32;;;;;;;8.85;4.20;;;;;;;;;;5039042;28;20110;-40
2022/11/15 04:28:16;;;;;;;8.23;3.83;;;;;;;;;;5031347;28;20079;-40
2022/11/15 04:31:00;;;;;;;7.78;3.33;;;;;;;;;;5031330;28;20040;-40
2022/11/15 04:33:44;;;;;;;6.70;3.55;;;;;;;;;;5031495;28;20510;-40
2022/11/15 04:39:30;;;;;;;8.03;3.83;;;;;;;;;;5031495;28;20129;-40
2022/11/15 04:42:14;;;;;;;6.25;3.95;;;;;;;;;;5031233;28;20041;-40
2022/11/15 04:44:58;;;;;;;7.35;3.78;;;;;;;;;;5031376;28;20067;-41
2022/11/15 04:47:45;;;;;;;10.25;4.60;;;;;;;;;;5031195;28;20451;-40
2022/11/15 04:50:29;;;;;;;5.60;3.38;;;;;;;;;;5031150;28;20455;-40
2022/11/15 04:53:13;;;;;;;7.60;3.22;;;;;;;;;;5031104;28;20475;-41
2022/11/15 04:55:57;;;;;;;7.68;4.38;;;;;;;;;;5031218;28;20403;-40
2022/11/15 04:58:41;;;;;;;14.30;3.38;;;;;;;;;;5031062;28;20125;-43
2022/11/15 05:01:25;;;;;;;4.22;3.35;;;;;;;;;;5031228;28;20053;-41
2022/11/15 05:04:18;;;;;;;6.00;3.95;;;;;;;;;;5031082;28;20060;-41
2022/11/15 05:07:05;;;;;;;5.60;3.42;;;;;;;;;;5031196;28;20117;-41
2022/11/15 05:09:49;;;;;;;6.47;3.33;;;;;;;;;;5031420;28;20125;-41
2022/11/15 05:12:33;;;;;;;11.13;4.45;;;;;;;;;;5031012;28;20056;-40
2022/11/15 05:15:17;;;;;;;8.05;3.80;;;;;;;;;;5031023;28;20518;-41
2022/11/15 05:18:01;;;;;;;9.80;4.45;;;;;;;;;;5034370;28;20052;-40
2022/11/15 05:20:45;;;;;;;6.53;3.30;;;;;;;;;;5034473;28;20045;-41
2022/11/15 05:23:29;;;;;;;6.22;2.85;;;;;;;;;;5034579;28;20044;-41
2022/11/15 05:26:14;;;;;;;10.93;3.83;;;;;;;;;;5034747;28;20048;-41
2022/11/15 05:28:59;;;;;;;9.35;4.43;;;;;;;;;;5034558;28;20103;-41
2022/11/15 05:31:43;;;;;;;8.75;4.05;;;;;;;;;;5034543;28;20052;-40
2022/11/15 05:34:27;;;;;;;6.82;3.53;;;;;;;;;;5034452;28;20215;-40
2022/11/15 05:37:11;;;;;;;7.85;4.40;;;;;;;;;;5034226;28;20560;-40
2022/11/15 05:39:54;;;;;;;6.45;4.47;;;;;;;;;;5034197;28;20063;-41
2022/11/15 05:42:39;;;;;;;9.45;4.40;;;;;;;;;;5034488;28;20116;-40
2022/11/15 05:45:23;;;;;;;7.30;3.78;;;;;;;;;;5034360;28;20056;-40
2022/11/15 05:48:07;;;;;;;6.47;3.13;;;;;;;;;;5033914;28;20051;-40
2022/11/15 05:50:52;;;;;;;6.75;3.95;;;;;;;;;;5033927;28;20087;-40
2022/11/15 05:53:36;;;;;;;6.22;3.35;;;;;;;;;;5034025;28;20044;-41
2022/11/15 05:56:20;;;;;;;6.57;3.75;;;;;;;;;;5033890;28;20103;-40
2022/11/15 05:59:05;;;;;;;6.05;3.70;;;;;;;;;;5034080;28;20514;-40
2022/11/15 06:01:49;;;;;;;5.88;3.65;;;;;;;;;;5033771;28;20506;-40
2022/11/15 06:04:33;;;;;;;6.88;3.67;;;;;;;;;;5033770;28;20157;-40
2022/11/15 06:07:17;;;;;;;6.38;3.33;;;;;;;;;;5033786;28;20415;-40
2022/11/15 06:10:01;;;;;;;5.07;3.13;;;;;;;;;;5033671;28;20049;-40
2022/11/15 06:12:45;;;;;;;7.65;3.65;;;;;;;;;;5033431;28;20048;-40
2022/11/15 06:15:29;;;;;;;6.57;2.92;;;;;;;;;;5034174;28;20502;-40
2022/11/15 06:18:13;;;;;;;5.07;3.03;;;;;;;;;;5033626;28;20064;-40
2022/11/15 06:21:00;;;;;;;7.07;3.33;;;;;;;;;;5033336;28;20040;-40
2022/11/15 06:23:43;;;;;;;3.97;2.50;;;;;;;;;;5033735;28;20040;-40
2022/11/15 06:26:28;;;;;;;6.65;3.80;;;;;;;;;;5033365;28;20671;-41
2022/11/15 06:29:11;;;;;;;6.00;3.35;;;;;;;;;;5032475;28;20064;-40
2022/11/15 06:31:55;;;;;;;4.03;3.22;;;;;;;;;;5033307;28;20454;-41
2022/11/15 06:34:39;;;;;;;6.60;4.03;;;;;;;;;;5033528;28;20095;-40
2022/11/15 06:37:23;;;;;;;7.30;3.47;;;;;;;;;;5033442;28;20045;-40
2022/11/15 06:40:08;;;;;;;9.60;4.53;;;;;;;;;;5032915;28;20470;-40
2022/11/15 06:42:56;;;;;;;7.20;4.15;;;;;;;;;;5032821;28;20510;-40
2022/11/15 06:45:40;;;;;;;6.25;3.35;;;;;;;;;;5032836;28;20041;-41
2022/11/15 06:48:24;;;;;;;9.60;4.50;;;;;;;;;;5032759;28;20096;-40
2022/11/15 06:51:08;;;;;;;9.93;4.95;;;;;;;;;;5031674;28;20056;-40
2022/11/15 06:53:53;;;;;;;5.35;3.53;;;;;;;;;;5032991;28;20095;-40
2022/11/15 06:56:36;;;;;;;8.25;3.53;;;;;;;;;;5033052;28;20036;-41
2022/11/15 06:59:20;;;;;;;6.28;3.25;;;;;;;;;;5033014;28;20068;-40
2022/11/15 07:02:04;;;;;;;11.18;4.30;;;;;;;;;;5032664;28;20033;-40
2022/11/15 07:04:49;;;;;;;8.95;4.18;;;;;;;;;;5032612;28;20083;-41
2022/11/15 07:07:33;;;;;;;9.63;4.28;;;;;;;;;;5032795;28;20447;-40
2022/11/15 07:10:17;;;;;;;10.00;4.25;;;;;;;;;;5032829;28;20040;-40
2022/11/15 07:13:01;;;;;;;6.00;3.33;;;;;;;;;;5032356;28;20052;-40
2022/11/15 07:15:45;;;;;;;10.35;3.70;;;;;;;;;;5032311;28;20061;-40
2022/11/15 07:18:29;;;;;;;5.38;3.65;;;;;;;;;;5045805;28;20115;-40
2022/11/15 07:21:14;;;;;;;7.18;4.18;;;;;;;;;;5032694;28;20071;-40
2022/11/15 07:23:58;;;;;;;5.90;3.30;;;;;;;;;;5032104;28;20044;-40
2022/11/15 07:26:42;;;;;;;8.05;4.43;;;;;;;;;;5032291;28;20510;-40
2022/11/15 07:29:26;;;;;;;6.50;3.08;;;;;;;;;;5032237;28;20558;-41
2022/11/15 07:32:10;;;;;;;5.32;3.38;;;;;;;;;;5032075;28;20092;-41
2022/11/15 07:34:53;;;;;;;6.28;3.78;;;;;;;;;;5032355;28;20132;-40
2022/11/15 07:37:37;;;;;;;5.95;3.45;;;;;;;;;;5032063;28;20049;-40
2022/11/15 07:40:22;;;;;;;4.95;3.25;;;;;;;;;;5032151;28;20060;-41
2022/11/15 07:43:08;;;;;;;8.05;3.95;;;;;;;;;;5032100;28;20103;-40
2022/11/15 07:45:51;;;;;;;5.18;2.78;;;;;;;;;;5031827;28;20037;-41
2022/11/15 07:48:36;;;;;;;6.03;3.47;;;;;;;;;;5031817;28;20531;-40
2022/11/15 07:51:20;;;;;;;6.05;3.45;;;;;;;;;;5031697;28;20043;-41
2022/11/15 07:54:04;;;;;;;10.85;4.25;;;;;;;;;;5032060;28;20080;-40
2022/11/15 07:56:48;;;;;;;15.00;4.75;;;;;;;;;;5031950;28;20076;-40
2022/11/15 07:59:32;;;;;;;7.70;4.18;;;;;;;;;;5031592;28;20514;-40
2022/11/15 08:02:17;;;;;;;13.07;5.07;;;;;;;;;;5031758;28;20470;-40
2022/11/15 08:05:01;;;;;;;10.73;4.95;;;;;;;;;;5031834;28;20076;-40
2022/11/15 08:07:45;;;;;;;11.68;5.18;;;;;;;;;;5031552;28;20050;-40
2022/11/15 08:10:29;;;;;;;9.80;4.65;;;;;;;;;;5031591;28;20051;-40
2022/11/15 08:13:13;;;;;;;9.57;4.40;;;;;;;;;;5031796;28;20052;-40
2022/11/15 08:15:58;;;;;;;9.13;4.07;;;;;;;;;;5031899;28;20049;-40
2022/11/15 08:18:42;;;;;;;8.05;3.67;;;;;;;;;;5031689;28;20048;-40
2022/11/15 08:21:26;;;;;;;6.45;3.65;;;;;;;;;;5031777;28;20048;-43
2022/11/15 08:24:10;;;;;;;9.18;3.55;;;;;;;;;;5031318;28;20099;-40
2022/11/15 08:26:54;;;;;;;5.60;3.65;;;;;;;;;;5031173;28;20060;-40
2022/11/15 08:29:38;;;;;;;5.43;3.95;;;;;;;;;;5031354;28;20130;-40
2022/11/15 08:32:22;;;;;;;5.78;3.30;;;;;;;;;;5031337;28;20052;-40
2022/11/15 08:35:07;;;;;;;8.10;3.47;;;;;;;;;;5031311;28;20107;-40
2022/11/15 08:37:52;;;;;;;8.80;4.30;;;;;;;;;;5031256;28;20076;-40
2022/11/15 08:40:36;;;;;;;6.90;3.40;;;;;;;;;;5031295;28;20557;-40
2022/11/15 08:43:20;;;;;;;7.30;3.15;;;;;;;;;;5031444;28;20045;-40
2022/11/15 08:46:04;;;;;;;7.32;3.67;;;;;;;;;;5031080;28;20040;-40
2022/11/15 08:48:48;;;;;;;5.45;3.53;;;;;;;;;;5030989;28;20080;-40
2022/11/15 08:51:33;;;;;;;7.13;4.53;;;;;;;;;;5032322;28;20040;-41
2022/11/15 08:54:17;;;;;;;13.30;4.57;;;;;;;;;;5035374;28;20052;-42
2022/11/15 08:57:01;;;;;;;5.20;3.88;;;;;;;;;;5035215;28;20100;-40
2022/11/15 08:59:45;;;;;;;5.78;3.80;;;;;;;;;;5035346;28;20502;-40
2022/11/15 09:02:29;;;;;;;9.40;3.50;;;;;;;;;;5035165;28;20056;-40
2022/11/15 09:05:13;;;;;;;5.88;3.58;;;;;;;;;;5035086;28;20044;-40
2022/11/15 09:07:57;;;;;;;8.55;3.95;;;;;;;;;;5035080;28;20048;-40
2022/11/15 09:10:41;;;;;;;8.35;4.15;;;;;;;;;;5034981;28;20040;-40
2022/11/15 09:13:25;;;;;;;8.00;4.65;;;;;;;;;;5034862;28;20087;-40
2022/11/15 09:16:09;;;;;;;7.10;4.13;;;;;;;;;;5034560;28;20080;-40
2022/11/15 09:18:53;;;;;;;6.97;3.75;;;;;;;;;;5034814;28;20036;-41
2022/11/15 09:21:38;;;;;;;9.05;3.10;;;;;;;;;;5034642;28;20049;-40
2022/11/15 09:24:22;;;;;;;8.68;4.05;;;;;;;;;;5034539;28;20083;-40
2022/11/15 09:27:06;;;;;;;4.97;2.92;;;;;;;;;;5034617;28;20079;-40
2022/11/15 09:29:50;;;;;;;8.27;4.38;;;;;;;;;;5034630;28;20049;-46
2022/11/15 09:32:34;;;;;;;8.63;3.42;;;;;;;;;;5034377;28;20454;-41
2022/11/15 09:35:18;;;;;;;5.22;3.05;;;;;;;;;;5034610;28;20060;-40
2022/11/15 09:38:02;;;;;;;11.18;5.65;;;;;;;;;;5034472;28;20048;-40
2022/11/15 09:40:50;;;;;;;7.50;3.60;;;;;;;;;;5034584;28;20040;-42
2022/11/15 09:43:42;;;;;;;6.43;3.80;;;;;;;;;;5034556;28;20113;-40
2022/11/15 09:46:45;;;;;;;6.82;3.70;;;;;;;;;;5034067;28;20063;-40
2022/11/15 09:49:45;;;;;;;5.65;3.10;;;;;;;;;;5032881;28;20049;-40
2022/11/15 09:52:18;;;;;;;4.75;3.03;;;;;;;;;;5032594;28;20041;-40
2022/11/15 09:54:47;;;;;;;6.35;2.97;;;;;;;;;;5034323;28;20063;-40
2022/11/15 09:57:12;;;;;;;7.13;3.55;;;;;;;;;;5033873;28;20029;-40
2022/11/15 09:59:55;;;;;;;6.47;3.05;;;;;;;;;;5033774;28;20026;-41
2022/11/15 10:02:38;;;;;;;3.72;3.00;;;;;;;;;;5033240;28;20041;-43
2022/11/15 10:05:04;;;;;;;5.88;3.85;;;;;;;;;;5033749;28;20041;-40
2022/11/15 10:07:30;;;;;;;7.15;3.22;;;;;;;;;;5033898;28;20025;-40
2022/11/15 10:10:01;;;;;;;5.22;3.28;;;;;;;;;;5033618;28;20040;-40
2022/11/15 10:12:27;;;;;;;5.15;3.28;;;;;;;;;;5033864;28;20042;-40
2022/11/15 10:15:01;;;;;;;8.50;3.78;;;;;;;;;;5033356;28;20020;-41
2022/11/15 10:17:50;;;;;;;6.60;3.35;;;;;;;;;;5033594;28;20033;-40
2022/11/15 10:20:26;;;;;;;4.20;2.97;;;;;;;;;;5033548;28;20033;-41
2022/11/15 10:23:01;;;;;;;4.68;2.72;;;;;;;;;;5033321;28;20038;-40
2022/11/15 10:25:28;;;;;;;5.13;3.20;;;;;;;;;;5033673;28;20060;-41
2022/11/15 10:27:54;;;;;;;3.65;2.90;;;;;;;;;;5033197;28;20025;-40
2022/11/15 10:30:20;;;;;;;6.13;2.85;;;;;;;;;;5033292;28;20029;-40
2022/11/15 10:32:46;;;;;;;4.38;2.47;;;;;;;;;;5033504;28;20026;-40
2022/11/15 10:35:23;;;;;;;5.13;2.50;;;;;;;;;;5033246;28;20040;-40
2022/11/15 10:37:49;;;;;;;4.07;2.33;;;;;;;;;;5033503;28;20029;-40
2022/11/15 10:40:16;;;;;;;2.97;2.30;;;;;;;;;;5033079;28;20601;-40
2022/11/15 10:42:41;;;;;;;2.78;2.15;;;;;;;;;;5033121;28;20075;-40
2022/11/15 10:45:26;;;;;;;4.03;2.72;;;;;;;;;;5033206;28;20076;-40
2022/11/15 10:47:51;;;;;;;7.22;1.98;;;;;;;;;;5032770;28;20486;-40
2022/11/15 10:50:27;;;;;;;5.00;2.88;;;;;;;;;;5032916;28;20081;-40
2022/11/15 10:52:53;;;;;;;5.57;2.05;;;;;;;;;;5032796;28;20172;-40
2022/11/15 10:55:27;;;;;;;3.70;2.67;;;;;;;;;;5032815;28;20104;-40
2022/11/15 10:57:55;;;;;;;3.22;2.10;;;;;;;;;;5032703;28;20545;-41
2022/11/15 11:00:20;;;;;;;3.53;2.38;;;;;;;;;;5032739;28;20025;-40
2022/11/15 11:02:55;;;;;;;3.90;2.85;;;;;;;;;;5032998;28;20037;-40
2022/11/15 11:05:29;;;;;;;3.40;1.77;;;;;;;;;;5032654;28;20025;-40
2022/11/15 11:08:01;;;;;;;4.68;3.25;;;;;;;;;;5032533;28;20046;-40
2022/11/15 11:10:26;;;;;;;3.70;2.25;;;;;;;;;;5032832;28;20029;-41
2022/11/15 11:12:52;;;;;;;4.95;2.35;;;;;;;;;;5032366;28;20499;-40
2022/11/15 11:15:18;;;;;;;3.25;2.15;;;;;;;;;;5032069;28;20491;-41
2022/11/15 11:17:55;;;;;;;3.45;2.42;;;;;;;;;;5032392;28;20017;-41
2022/11/15 11:20:27;;;;;;;5.47;2.40;;;;;;;;;;5032704;28;20495;-41
2022/11/15 11:23:11;;;;;;;3.00;2.08;;;;;;;;;;5032207;28;20112;-41
2022/11/15 11:25:55;;;;;;;3.92;2.53;;;;;;;;;;5032213;28;20018;-41
2022/11/15 11:28:24;;;;;;;2.38;1.88;;;;;;;;;;5031038;28;20033;-41
2022/11/15 11:30:49;;;;;;;3.75;2.28;;;;;;;;;;5030971;28;20021;-41
2022/11/15 11:33:34;;;;;;;4.30;2.42;;;;;;;;;;5032104;28;20045;-40
2022/11/15 11:36:10;;;;;;;2.90;1.92;;;;;;;;;;5031944;28;20035;-41
2022/11/15 11:38:54;;;;;;;3.15;2.00;;;;;;;;;;5032355;28;20388;-41
2022/11/15 11:41:51;;;;;;;3.50;2.00;;;;;;;;;;5031935;28;20056;-40
2022/11/15 11:44:35;;;;;;;3.03;2.25;;;;;;;;;;5030391;28;20048;-40
2022/11/15 11:47:04;;;;;;;3.25;1.83;;;;;;;;;;5031776;28;20053;-41
2022/11/15 11:49:37;;;;;;;2.78;1.95;;;;;;;;;;5031696;28;20050;-41
2022/11/15 11:52:09;;;;;;;2.67;1.77;;;;;;;;;;5031923;28;20427;-40
2022/11/15 11:54:36;;;;;;;;;;;;;;;;;;5032088;28;20057;-40
2022/11/15 11:57:04;;;;;;;2.28;1.67;;;;;;;;;;5031653;28;19951;-41
2022/11/15 11:59:33;;;;;;;1.90;1.35;;;;;;;;;;5031926;28;20053;-41
2022/11/15 12:02:02;;;;;;;3.10;1.85;;;;;;;;;;5031806;28;20034;-41
2022/11/15 12:04:30;;;;;;;3.58;1.52;;;;;;;;;;5031629;28;20031;-40
2022/11/15 12:06:59;;;;;;;5.07;2.22;;;;;;;;;;5031478;28;20022;-40
2022/11/15 12:09:33;;;;;;;3.08;2.40;;;;;;;;;;5031590;28;20407;-41
2022/11/15 12:12:04;;;;;;;3.05;1.70;;;;;;;;;;5031675;28;20080;-41
2022/11/15 12:14:32;;;;;;;6.13;2.40;;;;;;;;;;5031464;28;20022;-40
2022/11/15 12:16:58;;;;;;;3.65;1.88;;;;;;;;;;5031608;28;20030;-40
2022/11/15 12:19:24;;;;;;;2.92;2.20;;;;;;;;;;5031567;28;20025;-41
2022/11/15 12:21:49;;;;;;;3.60;2.25;;;;;;;;;;5031527;28;20033;-41
2022/11/15 12:24:24;;;;;;;3.90;2.00;;;;;;;;;;5031400;28;20029;-41
2022/11/15 12:26:55;;;;;;;4.70;2.53;;;;;;;;;;5030785;28;20075;-40
2022/11/15 12:29:40;;;;;;;3.05;1.88;;;;;;;;;;5031560;28;20033;-40
2022/11/15 12:32:17;;;;;;;2.50;1.60;;;;;;;;;;5031168;28;20048;-41
2022/11/15 12:34:45;;;;;;;2.17;1.98;;;;;;;;;;5031304;28;20476;-41
2022/11/15 12:37:29;;;;;;;1.33;1.23;;;;;;;;;;5031102;28;20024;-41
2022/11/15 12:40:12;;;;;;;2.50;1.88;;;;;;;;;;5031216;28;20035;-41
2022/11/15 12:42:42;;;;;;;5.43;1.52;;;;;;;;;;5029954;28;20434;-41
2022/11/15 12:45:34;;;;;;;3.22;1.73;;;;;;;;;;5031052;28;20120;-40
2022/11/15 12:48:15;;;;;;;3.42;2.00;;;;;;;;;;5030633;28;20089;-41
2022/11/15 12:50:50;;;;;;;3.15;2.13;;;;;;;;;;5031173;28;20411;-41
2022/11/15 12:53:25;;;;;;;4.20;2.15;;;;;;;;;;5030901;28;20042;-41
2022/11/15 12:56:09;;;;;;;2.95;1.90;;;;;;;;;;5031163;28;20025;-40
2022/11/15 12:58:42;;;;;;;5.60;2.30;;;;;;;;;;5030992;28;20029;-41
2022/11/15 13:01:08;;;;;;;4.45;1.77;;;;;;;;;;5031009;28;20033;-41
2022/11/15 13:03:34;;;;;;;4.38;2.10;;;;;;;;;;5031231;28;20091;-41
2022/11/15 13:06:01;;;;;;;4.55;2.22;;;;;;;;;;5030817;28;20111;-41
2022/11/15 13:08:40;;;;;;;3.35;2.00;;;;;;;;;;5031035;28;20044;-41
2022/11/15 13:11:25;;;;;;;2.95;2.22;;;;;;;;;;5030845;28;20041;-40
2022/11/15 13:13:51;;;;;;;3.22;2.38;;;;;;;;;;5030910;28;20034;-41
2022/11/15 13:16:20;;;;;;;4.35;2.85;;;;;;;;;;5030873;28;20498;-40
2022/11/15 13:18:53;;;;;;;4.93;3.13;;;;;;;;;;5030834;28;20495;-40
2022/11/15 13:24:03;;;;;;;2.63;1.90;;;;;;;;;;5030754;28;20367;-40
2022/11/15 13:26:28;;;;;;;3.60;2.47;;;;;;;;;;5030820;28;20025;-40
2022/11/15 13:28:55;;;;;;;4.30;2.88;;;;;;;;;;5030742;28;20499;-41
2022/11/15 13:31:39;;;;;;;2.92;2.15;;;;;;;;;;5030780;28;20506;-40
2022/11/15 13:34:16;;;;;;;3.38;2.53;;;;;;;;;;5030584;28;20099;-40
2022/11/15 13:36:42;;;;;;;3.47;2.25;;;;;;;;;;5029494;28;20068;-40
2022/11/15 13:39:23;;;;;;;11.98;2.92;;;;;;;;;;5034052;28;20056;-41
2022/11/15 13:41:49;;;;;;;2.78;2.38;;;;;;;;;;5034318;28;20373;-40
2022/11/15 13:44:22;;;;;;;3.95;2.67;;;;;;;;;;5032917;28;20029;-40
2022/11/15 13:46:48;;;;;;;4.97;2.90;;;;;;;;;;5034126;28;20384;-40
2022/11/15 13:49:14;;;;;;;3.42;2.35;;;;;;;;;;5033897;28;20048;-41
2022/11/15 13:51:42;;;;;;;3.60;2.42;;;;;;;;;;5034306;28;20037;-40
2022/11/15 13:54:24;;;;;;;4.03;2.78;;;;;;;;;;5033896;28;20028;-40
2022/11/15 13:56:55;;;;;;;4.90;3.45;;;;;;;;;;5032721;28;20029;-40
2022/11/15 13:59:33;;;;;;;4.53;2.70;;;;;;;;;;5034253;28;20045;-41
2022/11/15 14:02:14;;;;;;;3.72;2.63;;;;;;;;;;5033815;28;20140;-40
2022/11/15 14:04:56;;;;;;;3.90;2.53;;;;;;;;;;5032450;28;20038;-40
2022/11/15 14:07:23;;;;;;;4.17;2.17;;;;;;;;;;5033895;28;20531;-40
2022/11/15 14:09:49;;;;;;;6.65;3.28;;;;;;;;;;5033612;28;20515;-41
2022/11/15 14:12:34;;;;;;;5.30;3.35;;;;;;;;;;5033625;28;20037;-40
2022/11/15 14:15:01;;;;;;;4.90;2.60;;;;;;;;;;5033725;28;20041;-41
2022/11/15 14:17:31;;;;;;;5.38;3.28;;;;;;;;;;5032339;28;20111;-40
2022/11/15 14:19:57;;;;;;;6.00;3.22;;;;;;;;;;5033360;28;20068;-41
2022/11/15 14:22:27;;;;;;;6.47;2.88;;;;;;;;;;5033830;28;20021;-40
2022/11/15 14:25:12;;;;;;;5.28;2.70;;;;;;;;;;5033409;28;20036;-40
2022/11/15 14:27:38;;;;;;;4.95;3.30;;;;;;;;;;5033465;28;20037;-41
2022/11/15 14:30:04;;;;;;;5.75;3.30;;;;;;;;;;5033230;28;20025;-40
2022/11/15 14:32:39;;;;;;;6.88;3.88;;;;;;;;;;5033572;28;20533;-40
2022/11/15 14:35:11;;;;;;;6.72;2.97;;;;;;;;;;5033687;28;20084;-40
2022/11/15 14:37:37;;;;;;;10.02;4.90;;;;;;;;;;5033220;28;20033;-40
2022/11/15 14:40:03;;;;;;;8.32;3.45;;;;;;;;;;5033137;28;20039;-40
2022/11/15 14:42:29;;;;;;;4.22;3.42;;;;;;;;;;5033460;28;20030;-40
2022/11/15 14:44:54;;;;;;;6.78;3.63;;;;;;;;;;5032905;28;20029;-40
2022/11/15 14:47:20;;;;;;;7.75;4.38;;;;;;;;;;5032884;28;20136;-40
2022/11/15 14:49:46;;;;;;;4.45;3.30;;;;;;;;;;5032299;28;20037;-41
2022/11/15 14:52:19;;;;;;;8.52;3.58;;;;;;;;;;5031566;28;20505;-41
2022/11/15 14:54:44;;;;;;;8.95;4.07;;;;;;;;;;5032927;28;20659;-41
2022/11/15 14:57:10;;;;;;;6.97;3.72;;;;;;;;;;5032830;28;20051;-41
2022/11/15 14:59:35;;;;;;;8.82;4.28;;;;;;;;;;5032801;28;20037;-41
2022/11/15 15:02:01;;;;;;;8.15;4.07;;;;;;;;;;5032687;28;20031;-40
2022/11/15 15:04:27;;;;;;;5.80;4.30;;;;;;;;;;5031345;28;20033;-41
2022/11/15 15:06:52;;;;;;;6.32;3.53;;;;;;;;;;5032612;28;20022;-40
2022/11/15 15:09:18;;;;;;;8.07;4.03;;;;;;;;;;5032867;28;20034;-40
2022/11/15 15:11:44;;;;;;;8.48;4.72;;;;;;;;;;5031170;28;20097;-40
2022/11/15 15:14:10;;;;;;;9.75;5.22;;;;;;;;;;5032385;28;20041;-40
2022/11/15 15:16:35;;;;;;;12.57;5.60;;;;;;;;;;5031115;28;20021;-40
2022/11/15 15:19:01;;;;;;;9.50;5.43;;;;;;;;;;5032166;28;20025;-41
2022/11/15 15:21:27;;;;;;;12.63;5.32;;;;;;;;;;5032393;28;20105;-40
2022/11/15 15:23:56;;;;;;;8.68;5.00;;;;;;;;;;5032601;28;20075;-40
2022/11/15 15:26:22;;;;;;;13.45;6.90;;;;;;;;;;5032559;28;20345;-40
2022/11/15 15:28:51;;;;;;;12.05;5.90;;;;;;;;;;5032574;28;20373;-41
2022/11/15 15:31:17;;;;;;;14.80;6.25;;;;;;;;;;5031981;28;20100;-40
2022/11/15 15:33:42;;;;;;;13.30;6.70;;;;;;;;;;5032260;28;20180;-41
2022/11/15 15:36:12;;;;;;;8.85;5.10;;;;;;;;;;5031891;28;20018;-40
2022/11/15 15:38:39;;;;;;;12.73;6.30;;;;;;;;;;5030792;28;20061;-41
2022/11/15 15:41:08;;;;;;;11.30;5.03;;;;;;;;;;5031894;28;20022;-40
2022/11/15 15:43:34;;;;;;;12.93;6.13;;;;;;;;;;5032022;28;20022;-41
2022/11/15 15:46:02;;;;;;;13.38;6.00;;;;;;;;;;5031701;28;20032;-41
2022/11/15 15:48:28;;;;;;;8.98;4.95;;;;;;;;;;5031749;28;20045;-40
2022/11/15 15:50:53;;;;;;;14.10;5.53;;;;;;;;;;5031918;28;20384;-41
2022/11/15 15:53:18;;;;;;;12.77;6.18;;;;;;;;;;5031918;28;20361;-40
2022/11/15 15:55:44;;;;;;;11.80;5.22;;;;;;;;;;5031697;28;20035;-41
2022/11/15 15:58:10;;;;;;;10.82;4.82;;;;;;;;;;5030517;28;20037;-40
2022/11/15 16:00:36;;;;;;;11.25;6.18;;;;;;;;;;5031679;28;20091;-40
2022/11/15 16:03:02;;;;;;;11.57;6.00;;;;;;;;;;5030319;28;20035;-40
2022/11/15 16:05:27;;;;;;;13.00;6.05;;;;;;;;;;5031850;28;20108;-40